This is the latest recevied weather packets stored in our database for station/object K1ABC. If no packets are shown the sender has not sent any weather packets the latest 10 day(s).
| Time | Temp. | Humidity | Pressure | Rain* | Wind** | Luminosity | Snow |
|---|---|---|---|---|---|---|---|
| 1777941034 | 18.33° C | 40% | 1006.9 hPa | 0 mm | - | - | - |
| 1777940838 | 18.33° C | 40% | 1006.9 hPa | 0 mm | - | - | - |
| 1777939773 | 18.89° C | 38% | 1006.4 hPa | 0 mm | - | - | - |
| 1777938229 | 20° C | 36% | 1006.2 hPa | 0 mm | - | - | - |
| 1777936656 | 21.11° C | 34% | 1005.9 hPa | 0 mm | - | - | - |
| 1777936461 | 21.11° C | 33% | 1005.8 hPa | 0 mm | - | - | - |
| 1777934505 | 21.67° C | 31% | 1005.5 hPa | 0 mm | - | - | - |
| 1777933433 | 21.67° C | 32% | 1005.4 hPa | 0 mm | - | - | - |
| 1777932985 | 21.67° C | 31% | 1005.3 hPa | 0 mm | - | - | - |
| 1777932415 | 21.67° C | 31% | 1005.4 hPa | 0 mm | - | - | - |
| 1777932213 | 21.67° C | 31% | 1005.4 hPa | 0 mm | - | - | - |
| 1777929550 | 23.33° C | 29% | 1005.2 hPa | 0 mm | - | - | - |
| 1777928245 | 22.78° C | 28% | 1005.3 hPa | 0 mm | - | - | - |
| 1777927558 | 22.78° C | 29% | 1005.3 hPa | 0 mm | - | - | - |
| 1777926370 | 22.78° C | 29% | 1005.3 hPa | 0 mm | - | - | - |
| 1777926049 | 22.78° C | 28% | 1005.3 hPa | 0 mm | - | - | - |
| 1777923469 | 23.33° C | 27% | 1005.4 hPa | 0 mm | - | - | - |
| 1777923142 | 23.33° C | 29% | 1005.3 hPa | 0 mm | - | - | - |
| 1777922450 | 22.78° C | 28% | 1005.4 hPa | 0 mm | - | - | - |
| 1777922245 | 22.22° C | 28% | 1005.5 hPa | 0 mm | - | - | - |
| 1777921416 | 22.78° C | 28% | 1005.7 hPa | 0 mm | - | - | - |
| 1777921218 | 22.22° C | 32% | 1005.7 hPa | 0 mm | - | - | - |
| 1777920279 | 21.11° C | 31% | 1005.7 hPa | 0 mm | - | - | - |
| 1777916610 | 22.22° C | 29% | 1006.2 hPa | 0 mm | - | - | - |
| 1777916293 | 22.22° C | 29% | 1006.1 hPa | 0 mm | - | - | - |
* Rain latest hour (hover to see other rain measurements)
** Current wind speed in m/s (hover to see current wind gust speed)